Time;durP1;ratioP1;P1;durP2;ratioP2;P2;SDS_P1;SDS_P2;PMS_P1;PMS_P2;Temp;Humidity;BMP_temperature;BMP_pressure;BME280_temperature;BME280_humidity;BME280_pressure;Samples;Min_cycle;Max_cycle;Signal;HPM_P1;HPM_P2
2022/12/04 00:02:12;;;;;;;50.22;22.52;;;;;;;;;;5082682;28;20053;-69
2022/12/04 00:04:39;;;;;;;49.30;21.38;;;;;;;;;;5083521;28;20140;-69
2022/12/04 00:07:05;;;;;;;51.47;23.73;;;;;;;;;;5082000;28;20063;-69
2022/12/04 00:09:32;;;;;;;51.33;23.52;;;;;;;;;;5080419;28;20056;-69
2022/12/04 00:11:58;;;;;;;46.15;22.50;;;;;;;;;;5082476;28;20063;-69
2022/12/04 00:14:24;;;;;;;42.88;20.08;;;;;;;;;;5083453;28;20327;-69
2022/12/04 00:16:51;;;;;;;51.90;20.60;;;;;;;;;;5078816;28;20055;-69
2022/12/04 00:19:17;;;;;;;50.83;23.02;;;;;;;;;;5080070;28;20047;-69
2022/12/04 00:21:44;;;;;;;50.08;21.60;;;;;;;;;;5081870;28;20052;-70
2022/12/04 00:24:10;;;;;;;43.75;20.00;;;;;;;;;;5081719;28;20110;-70
2022/12/04 00:26:36;;;;;;;47.58;21.48;;;;;;;;;;5082307;28;20102;-69
2022/12/04 00:29:03;;;;;;;50.47;23.27;;;;;;;;;;5070764;28;20084;-69
2022/12/04 00:31:29;;;;;;;49.35;23.25;;;;;;;;;;5080341;28;20056;-70
2022/12/04 00:33:56;;;;;;;52.30;23.75;;;;;;;;;;5081467;28;20086;-67
2022/12/04 00:36:24;;;;;;;53.75;25.05;;;;;;;;;;5082713;28;20101;-70
2022/12/04 00:38:51;;;;;;;45.60;22.92;;;;;;;;;;5076737;28;20053;-69
2022/12/04 00:41:19;;;;;;;48.35;22.83;;;;;;;;;;5070345;28;20056;-67
2022/12/04 00:43:45;;;;;;;55.13;24.15;;;;;;;;;;5082452;28;20063;-69
2022/12/04 00:46:12;;;;;;;48.15;22.80;;;;;;;;;;5074996;28;20110;-69
2022/12/04 00:48:38;;;;;;;50.47;22.75;;;;;;;;;;5080372;28;20048;-69
2022/12/04 00:51:06;;;;;;;47.67;22.35;;;;;;;;;;5067791;28;20658;-69
2022/12/04 00:53:33;;;;;;;52.72;23.02;;;;;;;;;;5080008;28;20656;-69
2022/12/04 00:56:03;;;;;;;55.25;22.45;;;;;;;;;;5071821;28;20064;-69
2022/12/04 00:58:29;;;;;;;46.45;21.65;;;;;;;;;;5081622;28;20060;-68
2022/12/04 01:01:03;;;;;;;47.78;23.33;;;;;;;;;;5079070;28;20057;-69
2022/12/04 01:03:30;;;;;;;51.80;22.92;;;;;;;;;;5081481;28;20045;-69
2022/12/04 01:05:56;;;;;;;46.47;22.75;;;;;;;;;;5082043;28;20051;-69
2022/12/04 01:08:23;;;;;;;45.88;20.58;;;;;;;;;;5078274;28;20135;-69
2022/12/04 01:10:49;;;;;;;45.47;21.45;;;;;;;;;;5074894;28;20104;-69
2022/12/04 01:13:15;;;;;;;50.35;22.15;;;;;;;;;;5080165;28;20136;-69
2022/12/04 01:15:42;;;;;;;47.53;22.02;;;;;;;;;;5081173;28;20048;-69
2022/12/04 01:18:09;;;;;;;47.80;23.35;;;;;;;;;;5079539;28;20048;-69
2022/12/04 01:20:36;;;;;;;52.40;23.67;;;;;;;;;;5074884;28;20063;-69
2022/12/04 01:23:02;;;;;;;52.97;23.30;;;;;;;;;;5084591;28;20106;-69
2022/12/04 01:25:28;;;;;;;52.65;23.58;;;;;;;;;;5085185;28;20620;-68
2022/12/04 01:27:55;;;;;;;50.38;23.38;;;;;;;;;;5084914;28;20064;-69
2022/12/04 01:30:21;;;;;;;46.50;22.75;;;;;;;;;;5071382;28;20045;-69
2022/12/04 01:32:47;;;;;;;48.92;22.45;;;;;;;;;;5082570;28;20052;-69
2022/12/04 01:35:14;;;;;;;46.75;22.60;;;;;;;;;;5073776;28;20059;-69
2022/12/04 01:37:40;;;;;;;51.33;24.33;;;;;;;;;;5075239;28;20059;-69
2022/12/04 01:40:11;;;;;;;56.83;23.80;;;;;;;;;;5082095;28;20135;-68
2022/12/04 01:42:37;;;;;;;54.78;26.60;;;;;;;;;;5071459;28;20121;-69
2022/12/04 01:45:22;;;;;;;56.78;26.02;;;;;;;;;;5083535;28;20052;-69
2022/12/04 01:47:51;;;;;;;51.25;22.38;;;;;;;;;;5075874;28;20045;-69
2022/12/04 01:50:17;;;;;;;45.30;22.67;;;;;;;;;;5073375;28;20059;-69
2022/12/04 01:52:43;;;;;;;54.33;25.40;;;;;;;;;;5084755;28;20048;-69
2022/12/04 01:55:10;;;;;;;49.13;21.52;;;;;;;;;;5084145;28;20538;-68
2022/12/04 01:57:37;;;;;;;51.42;23.70;;;;;;;;;;5085379;28;20052;-69
2022/12/04 02:00:06;;;;;;;47.95;22.48;;;;;;;;;;5084168;28;20063;-69
2022/12/04 02:02:33;;;;;;;54.33;24.92;;;;;;;;;;5083229;28;20059;-69
2022/12/04 02:05:04;;;;;;;54.88;24.08;;;;;;;;;;5071451;28;20057;-69
2022/12/04 02:07:31;;;;;;;53.88;23.95;;;;;;;;;;5071312;28;20045;-69
2022/12/04 02:10:02;;;;;;;54.90;24.20;;;;;;;;;;5081887;28;20056;-69
2022/12/04 02:12:37;;;;;;;49.63;24.02;;;;;;;;;;5068979;28;20096;-69
2022/12/04 02:15:10;;;;;;;50.50;22.27;;;;;;;;;;5084296;28;20522;-69
2022/12/04 02:17:45;;;;;;;48.35;22.42;;;;;;;;;;5084897;28;20057;-69
2022/12/04 02:20:19;;;;;;;51.65;22.80;;;;;;;;;;5084577;28;20053;-69
2022/12/04 02:22:46;;;;;;;46.50;23.10;;;;;;;;;;5082074;28;20051;-69
2022/12/04 02:25:32;;;;;;;50.33;24.58;;;;;;;;;;5083419;28;20116;-69
2022/12/04 02:28:04;;;;;;;48.92;22.60;;;;;;;;;;5067062;28;20045;-68
2022/12/04 02:30:31;;;;;;;49.55;22.90;;;;;;;;;;5084741;28;20063;-69
2022/12/04 02:32:57;;;;;;;57.63;24.02;;;;;;;;;;5083443;28;20053;-69
2022/12/04 02:35:26;;;;;;;55.85;22.95;;;;;;;;;;5083652;28;20053;-69
2022/12/04 02:37:55;;;;;;;54.95;23.77;;;;;;;;;;5079392;28;20475;-68
2022/12/04 02:40:26;;;;;;;44.75;22.52;;;;;;;;;;5064011;28;20049;-69
2022/12/04 02:42:58;;;;;;;47.58;24.10;;;;;;;;;;5074341;28;20045;-69
2022/12/04 02:45:28;;;;;;;49.65;24.23;;;;;;;;;;5083108;28;20051;-69
2022/12/04 02:47:55;;;;;;;56.17;23.75;;;;;;;;;;5083637;28;20102;-68
2022/12/04 02:50:23;;;;;;;44.42;23.70;;;;;;;;;;5082956;28;20056;-68
2022/12/04 02:52:52;;;;;;;47.53;21.15;;;;;;;;;;5068541;28;20053;-68
2022/12/04 02:55:21;;;;;;;49.25;22.98;;;;;;;;;;5077697;28;20044;-68
2022/12/04 02:57:49;;;;;;;52.75;23.55;;;;;;;;;;5082151;28;20163;-68
2022/12/04 03:00:16;;;;;;;51.33;23.45;;;;;;;;;;5081199;28;20052;-68
2022/12/04 03:02:57;;;;;;;50.97;22.83;;;;;;;;;;5083550;28;20456;-68
2022/12/04 03:05:37;;;;;;;48.05;23.52;;;;;;;;;;5071672;28;20057;-67
2022/12/04 03:08:06;;;;;;;49.08;24.13;;;;;;;;;;5066579;28;20053;-67
2022/12/04 03:10:34;;;;;;;53.65;23.52;;;;;;;;;;5068293;28;20616;-68
2022/12/04 03:13:13;;;;;;;52.88;25.17;;;;;;;;;;5077047;28;20107;-67
2022/12/04 03:15:47;;;;;;;49.25;23.92;;;;;;;;;;5079987;28;20115;-67
2022/12/04 03:18:15;;;;;;;47.42;22.30;;;;;;;;;;5082368;28;20509;-67
2022/12/04 03:20:42;;;;;;;52.10;23.67;;;;;;;;;;5070308;28;20107;-68
2022/12/04 03:23:13;;;;;;;50.88;23.02;;;;;;;;;;5083025;28;20122;-67
2022/12/04 03:25:55;;;;;;;52.05;23.20;;;;;;;;;;5073447;28;20053;-67
2022/12/04 03:28:24;;;;;;;53.65;24.90;;;;;;;;;;5078560;28;20560;-67
2022/12/04 03:30:54;;;;;;;50.50;23.35;;;;;;;;;;5081874;28;20080;-68
2022/12/04 03:33:22;;;;;;;54.28;24.20;;;;;;;;;;5072132;28;20052;-68
2022/12/04 03:35:54;;;;;;;49.67;23.77;;;;;;;;;;5073166;28;20048;-67
2022/12/04 03:38:28;;;;;;;51.75;25.40;;;;;;;;;;5082685;28;20695;-67
2022/12/04 03:41:00;;;;;;;50.63;22.67;;;;;;;;;;5077022;28;20155;-67
2022/12/04 03:43:35;;;;;;;57.67;25.20;;;;;;;;;;5081039;28;20064;-68
2022/12/04 03:46:02;;;;;;;50.05;22.70;;;;;;;;;;5075787;28;20053;-67
2022/12/04 03:48:49;;;;;;;47.70;21.83;;;;;;;;;;5082129;28;20451;-68
2022/12/04 03:51:18;;;;;;;53.45;24.20;;;;;;;;;;5069796;28;20045;-68
2022/12/04 03:53:49;;;;;;;48.35;22.80;;;;;;;;;;5078958;28;20048;-68
2022/12/04 03:56:17;;;;;;;50.90;25.23;;;;;;;;;;5079903;28;20048;-68
2022/12/04 03:58:48;;;;;;;52.25;25.25;;;;;;;;;;5083415;28;20056;-68
2022/12/04 04:01:17;;;;;;;49.45;23.10;;;;;;;;;;5082269;28;20451;-67
2022/12/04 04:03:46;;;;;;;47.92;22.80;;;;;;;;;;5082786;28;20144;-68
2022/12/04 04:06:15;;;;;;;49.75;22.52;;;;;;;;;;5077478;28;20056;-67
2022/12/04 04:08:43;;;;;;;50.10;23.70;;;;;;;;;;5082606;28;20059;-68
2022/12/04 04:11:12;;;;;;;57.30;26.00;;;;;;;;;;5069278;28;20053;-67
2022/12/04 04:24:52;;;;;;;44.03;21.13;;;;;;;;;;5077095;28;20076;-68
2022/12/04 04:27:18;;;;;;;53.88;25.30;;;;;;;;;;5082811;28;20129;-67
2022/12/04 04:29:45;;;;;;;52.88;25.60;;;;;;;;;;5083388;28;20053;-67
2022/12/04 04:32:21;;;;;;;52.45;25.65;;;;;;;;;;5082654;28;20508;-67
2022/12/04 04:34:51;;;;;;;55.58;24.80;;;;;;;;;;5081573;28;20053;-68
2022/12/04 04:37:26;;;;;;;45.42;23.52;;;;;;;;;;5074369;28;20056;-68
2022/12/04 04:40:15;;;;;;;57.35;25.83;;;;;;;;;;5082223;28;20046;-68
2022/12/04 04:42:41;;;;;;;54.00;25.30;;;;;;;;;;5058148;28;20092;-68
2022/12/04 04:45:22;;;;;;;54.30;24.90;;;;;;;;;;5077623;28;20531;-68
2022/12/04 04:47:59;;;;;;;52.83;24.30;;;;;;;;;;5063212;28;20057;-68
2022/12/04 04:50:25;;;;;;;56.08;25.38;;;;;;;;;;5063550;28;20055;-68
2022/12/04 04:52:54;;;;;;;56.60;24.83;;;;;;;;;;5065601;28;20511;-67
2022/12/04 04:55:21;;;;;;;52.00;24.60;;;;;;;;;;5082042;28;20060;-68
2022/12/04 04:57:47;;;;;;;50.70;24.20;;;;;;;;;;5066252;28;20049;-68
2022/12/04 05:00:15;;;;;;;53.67;26.00;;;;;;;;;;5080810;28;20091;-68
2022/12/04 05:02:41;;;;;;;59.00;25.50;;;;;;;;;;5081538;28;20055;-68
2022/12/04 05:05:08;;;;;;;56.92;24.85;;;;;;;;;;5077564;28;20095;-68
2022/12/04 05:07:34;;;;;;;47.72;23.33;;;;;;;;;;5070323;28;20632;-68
2022/12/04 05:10:01;;;;;;;51.80;24.17;;;;;;;;;;5073010;28;20053;-68
2022/12/04 05:12:27;;;;;;;54.72;25.23;;;;;;;;;;5071555;28;20139;-68
2022/12/04 05:14:53;;;;;;;55.83;26.85;;;;;;;;;;5079017;28;20063;-67
2022/12/04 05:17:19;;;;;;;52.35;23.52;;;;;;;;;;5081733;28;20060;-67
2022/12/04 05:19:52;;;;;;;50.90;24.33;;;;;;;;;;5080976;28;20049;-68
2022/12/04 05:22:20;;;;;;;49.88;22.85;;;;;;;;;;5080944;28;20053;-67
2022/12/04 05:24:46;;;;;;;58.40;26.08;;;;;;;;;;5072401;28;20106;-68
2022/12/04 05:27:13;;;;;;;53.33;25.40;;;;;;;;;;5070691;28;20055;-68
2022/12/04 05:29:39;;;;;;;50.95;23.77;;;;;;;;;;5062483;28;20053;-69
2022/12/04 05:32:05;;;;;;;52.72;25.73;;;;;;;;;;5080272;28;20049;-69
2022/12/04 05:34:32;;;;;;;51.88;24.13;;;;;;;;;;5069658;28;20049;-70
2022/12/04 05:36:58;;;;;;;50.95;24.15;;;;;;;;;;5067515;28;20099;-68
2022/12/04 05:39:24;;;;;;;46.15;23.42;;;;;;;;;;5064295;28;20059;-69
2022/12/04 05:41:51;;;;;;;53.97;24.88;;;;;;;;;;5075817;28;20785;-68
2022/12/04 05:44:17;;;;;;;49.30;23.02;;;;;;;;;;5062583;28;20053;-69
2022/12/04 05:46:43;;;;;;;53.25;23.80;;;;;;;;;;5079362;28;20057;-69
2022/12/04 05:49:10;;;;;;;47.75;23.23;;;;;;;;;;5074462;28;20601;-69
2022/12/04 05:51:36;;;;;;;50.22;23.20;;;;;;;;;;5066245;28;20534;-69
2022/12/04 05:54:03;;;;;;;51.15;24.15;;;;;;;;;;5076128;28;21091;-69
2022/12/04 05:56:29;;;;;;;51.15;24.77;;;;;;;;;;5074252;28;20056;-69
2022/12/04 05:58:56;;;;;;;53.05;24.02;;;;;;;;;;5064265;28;20067;-69
2022/12/04 06:01:23;;;;;;;47.58;22.15;;;;;;;;;;5072009;28;20053;-69
2022/12/04 06:03:49;;;;;;;55.80;23.05;;;;;;;;;;5070935;28;20057;-68
2022/12/04 06:06:18;;;;;;;52.28;22.88;;;;;;;;;;5071420;28;20045;-68
2022/12/04 06:08:47;;;;;;;52.45;23.45;;;;;;;;;;5074459;28;20103;-69
2022/12/04 06:11:15;;;;;;;50.75;24.63;;;;;;;;;;5071765;28;20522;-69
2022/12/04 06:13:42;;;;;;;54.42;26.05;;;;;;;;;;5082884;28;20060;-69
2022/12/04 06:16:16;;;;;;;51.53;24.95;;;;;;;;;;5083552;28;20050;-69
2022/12/04 06:18:43;;;;;;;45.80;22.67;;;;;;;;;;5081944;28;20482;-69
2022/12/04 06:21:09;;;;;;;50.85;23.48;;;;;;;;;;5064298;28;20992;-69
2022/12/04 06:23:36;;;;;;;49.70;24.20;;;;;;;;;;5068786;28;20430;-69
2022/12/04 06:26:03;;;;;;;52.25;23.88;;;;;;;;;;5083522;28;20051;-69
2022/12/04 06:28:33;;;;;;;47.00;23.55;;;;;;;;;;5082896;28;20084;-69
2022/12/04 06:31:00;;;;;;;49.17;22.27;;;;;;;;;;5082996;28;20146;-69
2022/12/04 06:33:26;;;;;;;56.55;23.27;;;;;;;;;;5080078;28;20487;-69
2022/12/04 06:35:59;;;;;;;46.97;22.88;;;;;;;;;;5072807;28;20064;-68
2022/12/04 06:38:26;;;;;;;47.28;21.48;;;;;;;;;;5080261;28;20060;-69
2022/12/04 06:40:52;;;;;;;51.55;24.02;;;;;;;;;;5079544;28;20918;-69
2022/12/04 06:43:19;;;;;;;52.97;24.65;;;;;;;;;;5082650;28;20405;-69
2022/12/04 06:45:45;;;;;;;53.85;24.77;;;;;;;;;;5071423;28;20057;-69
2022/12/04 06:48:12;;;;;;;51.92;23.48;;;;;;;;;;5078305;28;20061;-69
2022/12/04 06:50:38;;;;;;;47.90;22.38;;;;;;;;;;5084952;28;20059;-69
2022/12/04 06:53:04;;;;;;;43.13;21.95;;;;;;;;;;5089100;28;20486;-68
2022/12/04 06:55:33;;;;;;;50.63;23.08;;;;;;;;;;5083736;28;20056;-69
2022/12/04 06:58:00;;;;;;;47.35;23.73;;;;;;;;;;5083218;28;20045;-68
2022/12/04 07:00:26;;;;;;;48.95;22.48;;;;;;;;;;5082369;28;20538;-69
2022/12/04 07:02:52;;;;;;;51.95;24.27;;;;;;;;;;5079843;28;20080;-69
2022/12/04 07:05:19;;;;;;;47.13;21.83;;;;;;;;;;5079136;28;20067;-69
2022/12/04 07:07:45;;;;;;;43.72;22.27;;;;;;;;;;5078861;28;20519;-69
2022/12/04 07:10:12;;;;;;;52.28;23.27;;;;;;;;;;5070688;28;20084;-69
2022/12/04 07:12:38;;;;;;;53.72;24.20;;;;;;;;;;5081713;28;20047;-69
2022/12/04 07:15:04;;;;;;;49.70;23.60;;;;;;;;;;5073240;28;20045;-68
2022/12/04 07:17:31;;;;;;;55.42;24.63;;;;;;;;;;5079863;28;20582;-69
2022/12/04 07:19:57;;;;;;;46.95;23.60;;;;;;;;;;5083873;28;20053;-68
2022/12/04 07:22:25;;;;;;;49.13;23.77;;;;;;;;;;5082357;28;20163;-69
2022/12/04 07:24:51;;;;;;;47.75;24.20;;;;;;;;;;5077895;28;20106;-69
2022/12/04 07:27:17;;;;;;;52.03;25.13;;;;;;;;;;5082224;28;20060;-69
2022/12/04 07:29:44;;;;;;;49.45;24.13;;;;;;;;;;5083260;28;20044;-69
2022/12/04 07:32:10;;;;;;;46.33;22.65;;;;;;;;;;5083784;28;20544;-69
2022/12/04 07:34:37;;;;;;;50.53;23.15;;;;;;;;;;5081589;28;20053;-69
2022/12/04 07:37:03;;;;;;;43.22;23.35;;;;;;;;;;5082801;28;20136;-69
2022/12/04 07:39:29;;;;;;;50.70;22.15;;;;;;;;;;5083123;28;20052;-68
2022/12/04 07:41:56;;;;;;;46.33;22.73;;;;;;;;;;5083270;28;20160;-68
2022/12/04 07:44:22;;;;;;;48.75;22.15;;;;;;;;;;5076867;28;20067;-68
2022/12/04 07:46:48;;;;;;;56.40;24.67;;;;;;;;;;5081926;28;20052;-68
2022/12/04 07:49:15;;;;;;;56.65;26.40;;;;;;;;;;5079985;28;20049;-68
2022/12/04 07:51:41;;;;;;;44.33;21.98;;;;;;;;;;5082626;28;20139;-68
2022/12/04 07:54:08;;;;;;;49.95;24.05;;;;;;;;;;5084086;28;20102;-68
2022/12/04 07:56:35;;;;;;;50.28;23.05;;;;;;;;;;5077257;28;20076;-68
2022/12/04 07:59:01;;;;;;;49.00;23.45;;;;;;;;;;5072223;28;20056;-68
2022/12/04 08:01:28;;;;;;;54.03;24.98;;;;;;;;;;5082457;28;20052;-68
2022/12/04 08:03:55;;;;;;;53.42;24.67;;;;;;;;;;5082980;28;20056;-69
2022/12/04 08:06:22;;;;;;;48.80;23.75;;;;;;;;;;5080833;28;20052;-68
2022/12/04 08:08:49;;;;;;;51.17;24.70;;;;;;;;;;5082658;28;20048;-69
2022/12/04 08:11:16;;;;;;;51.22;24.17;;;;;;;;;;5078714;28;20049;-69
2022/12/04 08:13:43;;;;;;;46.13;20.08;;;;;;;;;;5072169;28;20128;-69
2022/12/04 08:16:10;;;;;;;50.13;24.30;;;;;;;;;;5081555;28;20053;-68
2022/12/04 08:18:37;;;;;;;47.53;24.10;;;;;;;;;;5076527;28;20056;-68
2022/12/04 08:21:07;;;;;;;51.03;24.30;;;;;;;;;;5082606;28;20059;-68
2022/12/04 08:23:34;;;;;;;52.38;23.40;;;;;;;;;;5081918;28;20523;-69
2022/12/04 08:26:01;;;;;;;51.10;23.77;;;;;;;;;;5082678;28;20059;-69
2022/12/04 08:28:28;;;;;;;52.92;24.48;;;;;;;;;;5081706;28;20508;-69
2022/12/04 08:30:54;;;;;;;51.05;23.45;;;;;;;;;;5081045;28;20522;-69
2022/12/04 08:33:21;;;;;;;49.17;23.35;;;;;;;;;;5082213;28;20056;-69
2022/12/04 08:35:47;;;;;;;48.67;24.27;;;;;;;;;;5082214;28;20588;-69
2022/12/04 08:38:13;;;;;;;54.70;24.80;;;;;;;;;;5071037;28;20052;-69
2022/12/04 08:40:40;;;;;;;51.20;24.42;;;;;;;;;;5077182;28;20098;-69
2022/12/04 08:43:07;;;;;;;55.95;24.65;;;;;;;;;;5082547;28;20772;-69
2022/12/04 08:45:33;;;;;;;53.20;24.23;;;;;;;;;;5079055;28;20049;-69
2022/12/04 08:47:59;;;;;;;42.78;22.33;;;;;;;;;;5073633;28;20064;-68
2022/12/04 08:50:26;;;;;;;52.50;25.42;;;;;;;;;;5082773;28;20050;-67
2022/12/04 08:52:52;;;;;;;48.25;22.42;;;;;;;;;;5076961;28;20163;-68
2022/12/04 08:55:18;;;;;;;55.08;23.20;;;;;;;;;;5083355;28;20049;-68
2022/12/04 08:57:45;;;;;;;44.08;21.15;;;;;;;;;;5082124;28;20059;-68
2022/12/04 09:00:11;;;;;;;51.35;22.13;;;;;;;;;;5062901;28;20422;-68
2022/12/04 09:02:38;;;;;;;45.08;21.80;;;;;;;;;;5062234;28;20052;-69
2022/12/04 09:05:04;;;;;;;49.38;22.75;;;;;;;;;;5074203;28;20049;-69
2022/12/04 09:07:30;;;;;;;52.42;23.85;;;;;;;;;;5080318;28;20056;-69
2022/12/04 09:09:57;;;;;;;49.70;22.27;;;;;;;;;;5082464;28;20597;-68
2022/12/04 09:12:23;;;;;;;49.28;22.65;;;;;;;;;;5080456;28;20059;-69
2022/12/04 09:14:50;;;;;;;51.13;22.63;;;;;;;;;;5076554;28;20526;-69
2022/12/04 09:17:16;;;;;;;50.28;21.85;;;;;;;;;;5081507;28;20057;-69
2022/12/04 09:19:43;;;;;;;44.97;21.23;;;;;;;;;;5077419;28;20048;-68
2022/12/04 09:22:09;;;;;;;48.22;21.67;;;;;;;;;;5083059;28;20106;-68
2022/12/04 09:24:36;;;;;;;43.33;20.65;;;;;;;;;;5073057;28;20140;-68
2022/12/04 09:27:02;;;;;;;50.03;21.98;;;;;;;;;;5072372;28;20159;-69
2022/12/04 09:29:28;;;;;;;41.58;20.00;;;;;;;;;;5082711;28;20048;-69
2022/12/04 09:31:55;;;;;;;51.80;22.73;;;;;;;;;;5074278;28;20140;-69
2022/12/04 09:34:21;;;;;;;45.83;22.42;;;;;;;;;;5079469;28;20504;-66
2022/12/04 09:36:48;;;;;;;42.70;21.42;;;;;;;;;;5079870;28;20044;-70
2022/12/04 09:39:15;;;;;;;42.58;20.08;;;;;;;;;;5081280;28;20056;-70
2022/12/04 09:41:49;;;;;;;45.95;21.17;;;;;;;;;;5066425;28;20053;-70
2022/12/04 09:44:15;;;;;;;43.67;22.20;;;;;;;;;;5066443;28;20041;-70
2022/12/04 09:46:45;;;;;;;50.10;21.90;;;;;;;;;;5066297;28;20556;-69
2022/12/04 09:49:19;;;;;;;51.33;21.90;;;;;;;;;;5083002;28;20053;-70
2022/12/04 09:51:46;;;;;;;42.13;20.30;;;;;;;;;;5069519;28;20525;-70
2022/12/04 09:54:17;;;;;;;45.00;21.70;;;;;;;;;;5079102;28;20048;-70
2022/12/04 09:56:47;;;;;;;47.40;21.40;;;;;;;;;;5085549;28;20057;-70
2022/12/04 09:59:15;;;;;;;48.33;22.80;;;;;;;;;;5084215;28;20049;-70
2022/12/04 10:01:50;;;;;;;48.33;19.27;;;;;;;;;;5076529;28;20059;-70
2022/12/04 10:04:17;;;;;;;40.88;19.63;;;;;;;;;;5083698;28;20056;-70
2022/12/04 10:06:51;;;;;;;42.17;19.88;;;;;;;;;;5082823;28;20135;-67
2022/12/04 10:09:17;;;;;;;43.90;20.48;;;;;;;;;;5064946;28;20864;-67
2022/12/04 10:11:50;;;;;;;48.33;22.75;;;;;;;;;;5079895;28;20046;-70
2022/12/04 10:14:23;;;;;;;40.88;19.92;;;;;;;;;;5074599;28;20082;-70
2022/12/04 10:16:55;;;;;;;46.00;20.45;;;;;;;;;;5083441;28;20048;-70
2022/12/04 10:19:35;;;;;;;40.92;19.65;;;;;;;;;;5083283;28;20175;-70
2022/12/04 10:22:21;;;;;;;38.47;19.27;;;;;;;;;;5071739;28;20176;-68
2022/12/04 10:24:47;;;;;;;41.05;18.65;;;;;;;;;;5081536;28;20262;-69
2022/12/04 10:27:35;;;;;;;39.33;19.17;;;;;;;;;;5081921;28;20507;-68
2022/12/04 10:30:03;;;;;;;35.95;17.38;;;;;;;;;;5078979;28;20647;-68
2022/12/04 10:32:31;;;;;;;35.08;17.50;;;;;;;;;;5084845;28;20059;-68
2022/12/04 10:35:24;;;;;;;36.70;17.20;;;;;;;;;;5084164;28;20052;-68
2022/12/04 10:37:55;;;;;;;35.28;16.02;;;;;;;;;;5081622;28;20050;-67
2022/12/04 10:40:24;;;;;;;34.00;16.08;;;;;;;;;;5081866;28;20511;-68
2022/12/04 10:42:54;;;;;;;32.75;14.82;;;;;;;;;;5083427;28;20052;-68
2022/12/04 10:45:21;;;;;;;37.92;17.23;;;;;;;;;;5083420;28;20048;-68
2022/12/04 10:47:48;;;;;;;26.90;14.68;;;;;;;;;;5084378;28;20103;-69
2022/12/04 10:50:19;;;;;;;35.80;16.48;;;;;;;;;;5083568;28;20427;-68
2022/12/04 10:52:45;;;;;;;36.38;17.05;;;;;;;;;;5083799;28;20052;-68
2022/12/04 10:55:12;;;;;;;32.63;15.35;;;;;;;;;;5083427;28;20045;-68
2022/12/04 10:57:40;;;;;;;36.42;15.48;;;;;;;;;;5076644;28;20536;-68
2022/12/04 11:00:23;;;;;;;32.28;15.07;;;;;;;;;;5084257;28;20048;-68
2022/12/04 11:02:49;;;;;;;33.75;15.43;;;;;;;;;;5064968;28;20135;-68
2022/12/04 11:05:22;;;;;;;36.58;16.33;;;;;;;;;;5080272;28;20434;-68
2022/12/04 11:07:50;;;;;;;33.40;16.70;;;;;;;;;;5081960;28;20057;-68
2022/12/04 11:10:35;;;;;;;34.95;14.75;;;;;;;;;;5073494;28;20045;-68
2022/12/04 11:13:05;;;;;;;28.92;14.18;;;;;;;;;;5075590;28;20044;-68
2022/12/04 11:15:41;;;;;;;27.38;13.63;;;;;;;;;;5084051;28;20140;-68
2022/12/04 11:18:08;;;;;;;33.30;14.40;;;;;;;;;;5083400;28;20123;-67
2022/12/04 11:20:34;;;;;;;28.75;13.88;;;;;;;;;;5081419;28;20060;-68
2022/12/04 11:23:01;;;;;;;35.15;15.05;;;;;;;;;;5083350;28;20583;-69
2022/12/04 11:25:32;;;;;;;29.63;14.68;;;;;;;;;;5083206;28;20056;-68
2022/12/04 11:28:00;;;;;;;29.13;14.18;;;;;;;;;;5084240;28;20136;-69
2022/12/04 11:30:34;;;;;;;28.65;14.15;;;;;;;;;;5079402;28;20053;-69
2022/12/04 11:33:01;;;;;;;30.20;13.88;;;;;;;;;;5080798;28;20148;-68
2022/12/04 11:35:28;;;;;;;28.95;14.68;;;;;;;;;;5083262;28;20059;-68
2022/12/04 11:38:01;;;;;;;29.00;12.95;;;;;;;;;;5083581;28;20637;-67
2022/12/04 11:40:28;;;;;;;28.45;13.85;;;;;;;;;;5070057;28;20056;-68
2022/12/04 11:43:01;;;;;;;27.25;13.85;;;;;;;;;;5082960;28;20058;-68
2022/12/04 11:45:27;;;;;;;28.08;13.25;;;;;;;;;;5079067;28;20102;-68
2022/12/04 11:47:58;;;;;;;24.20;12.90;;;;;;;;;;5073351;28;20498;-68
2022/12/04 11:50:24;;;;;;;21.13;11.73;;;;;;;;;;5091574;28;20052;-68
2022/12/04 11:52:53;;;;;;;22.98;12.60;;;;;;;;;;5083065;28;20114;-68
2022/12/04 11:55:39;;;;;;;20.88;12.80;;;;;;;;;;5081922;28;20079;-67
2022/12/04 11:58:05;;;;;;;26.50;13.03;;;;;;;;;;5080237;28;20055;-68
2022/12/04 12:00:34;;;;;;;23.00;12.48;;;;;;;;;;5082126;28;20084;-68
2022/12/04 12:03:18;;;;;;;20.20;11.50;;;;;;;;;;5080022;28;20049;-67
2022/12/04 12:05:45;;;;;;;22.33;12.00;;;;;;;;;;5072285;28;20588;-68
2022/12/04 12:08:24;;;;;;;22.75;11.68;;;;;;;;;;5077341;28;20052;-68
2022/12/04 12:11:11;;;;;;;20.50;11.80;;;;;;;;;;5072498;28;20056;-67
2022/12/04 12:13:37;;;;;;;;;;;;;;;;;;5071931;28;20056;-68
2022/12/04 12:16:22;;;;;;;25.30;10.85;;;;;;;;;;5083187;28;45114;-68
2022/12/04 12:19:07;;;;;;;18.80;11.27;;;;;;;;;;5072697;28;20135;-68
2022/12/04 12:21:52;;;;;;;21.10;10.63;;;;;;;;;;5078656;28;20076;-68
2022/12/04 12:24:18;;;;;;;23.03;11.17;;;;;;;;;;5071988;28;20386;-68
2022/12/04 12:26:53;;;;;;;18.25;10.27;;;;;;;;;;5080262;28;20071;-68
2022/12/04 12:29:19;;;;;;;20.70;10.93;;;;;;;;;;5080378;28;20132;-68
2022/12/04 12:31:52;;;;;;;20.73;10.43;;;;;;;;;;5087202;28;20060;-68
2022/12/04 12:34:21;;;;;;;19.55;10.48;;;;;;;;;;5085024;28;20049;-69
2022/12/04 12:36:49;;;;;;;22.15;10.73;;;;;;;;;;5066597;28;20045;-68
2022/12/04 12:39:22;;;;;;;22.75;11.68;;;;;;;;;;5080446;28;20053;-68
2022/12/04 12:41:52;;;;;;;23.25;12.52;;;;;;;;;;5076116;28;20075;-69
2022/12/04 12:44:51;;;;;;;21.10;11.35;;;;;;;;;;5072850;27;20056;-68
2022/12/04 12:47:19;;;;;;;20.50;11.23;;;;;;;;;;5075930;28;20058;-68
2022/12/04 12:50:04;;;;;;;20.00;10.90;;;;;;;;;;5072456;28;20110;-69
2022/12/04 12:52:34;;;;;;;22.97;10.97;;;;;;;;;;5072786;28;20056;-68
2022/12/04 12:55:03;;;;;;;20.02;10.82;;;;;;;;;;5081596;28;20652;-68
2022/12/04 12:57:33;;;;;;;16.08;9.43;;;;;;;;;;5074724;28;20136;-69
2022/12/04 13:00:09;;;;;;;20.40;10.55;;;;;;;;;;5062835;28;20205;-68
2022/12/04 13:02:35;;;;;;;;;;;;;;;;;;5080682;28;20056;-68
2022/12/04 13:05:07;;;;;;;23.13;10.02;;;;;;;;;;5078227;28;43967;-68
2022/12/04 13:07:33;;;;;;;17.25;9.38;;;;;;;;;;5062217;28;20060;-68
2022/12/04 13:10:06;;;;;;;22.77;11.30;;;;;;;;;;5072057;28;20057;-68
2022/12/04 13:12:42;;;;;;;21.35;11.00;;;;;;;;;;5065377;28;20055;-68
2022/12/04 13:15:15;;;;;;;18.48;10.70;;;;;;;;;;5075397;28;20565;-68
2022/12/04 13:17:42;;;;;;;18.95;10.60;;;;;;;;;;5073412;28;20056;-69
2022/12/04 13:20:15;;;;;;;20.00;11.43;;;;;;;;;;5074619;28;20056;-68
2022/12/04 13:22:42;;;;;;;21.77;11.25;;;;;;;;;;5074023;28;20433;-68
2022/12/04 13:25:26;;;;;;;18.92;10.57;;;;;;;;;;5085708;28;20048;-68
2022/12/04 13:28:00;;;;;;;24.08;11.48;;;;;;;;;;5086821;28;20063;-68
2022/12/04 13:30:35;;;;;;;19.13;11.30;;;;;;;;;;5082828;28;20083;-68
2022/12/04 13:33:11;;;;;;;20.20;10.93;;;;;;;;;;5070052;28;20057;-68
2022/12/04 13:35:43;;;;;;;18.00;10.32;;;;;;;;;;5077979;28;20112;-69
2022/12/04 13:38:21;;;;;;;22.40;12.30;;;;;;;;;;5076773;28;20060;-68
2022/12/04 13:40:53;;;;;;;26.05;11.77;;;;;;;;;;5082158;28;20055;-68
2022/12/04 13:43:24;;;;;;;19.83;11.02;;;;;;;;;;5079351;28;20123;-68
2022/12/04 13:45:52;;;;;;;23.35;11.60;;;;;;;;;;5082741;28;20067;-68
2022/12/04 13:48:28;;;;;;;21.00;11.95;;;;;;;;;;5082088;28;20052;-68
2022/12/04 13:51:02;;;;;;;21.80;12.73;;;;;;;;;;5078641;28;20168;-69
2022/12/04 13:53:30;;;;;;;19.23;10.75;;;;;;;;;;5077269;28;20044;-68
2022/12/04 13:55:57;;;;;;;26.70;12.27;;;;;;;;;;5081703;28;20053;-68
2022/12/04 13:58:32;;;;;;;21.02;11.40;;;;;;;;;;5080724;28;20045;-68
2022/12/04 14:01:03;;;;;;;22.75;11.02;;;;;;;;;;5084893;28;20132;-68
2022/12/04 14:03:32;;;;;;;22.40;11.98;;;;;;;;;;5085590;28;20049;-68
2022/12/04 14:06:04;;;;;;;29.50;13.27;;;;;;;;;;5083047;28;20790;-68
2022/12/04 14:08:36;;;;;;;23.35;11.85;;;;;;;;;;5084320;28;20052;-68
2022/12/04 14:11:04;;;;;;;23.00;11.68;;;;;;;;;;5084273;28;20048;-68
2022/12/04 14:13:48;;;;;;;26.98;12.77;;;;;;;;;;5083246;28;20048;-68
2022/12/04 14:16:34;;;;;;;24.02;12.38;;;;;;;;;;5083494;28;20090;-68
2022/12/04 14:19:02;;;;;;;28.05;14.32;;;;;;;;;;5084745;28;20118;-68
2022/12/04 14:21:42;;;;;;;27.98;14.88;;;;;;;;;;5079064;28;20059;-68
2022/12/04 14:24:27;;;;;;;26.83;13.85;;;;;;;;;;5082290;28;20053;-68
2022/12/04 14:26:53;;;;;;;27.70;14.15;;;;;;;;;;5081982;28;20057;-68
2022/12/04 14:29:44;;;;;;;27.95;13.90;;;;;;;;;;5071943;28;20096;-68
2022/12/04 14:32:25;;;;;;;29.42;13.95;;;;;;;;;;5072718;28;20131;-69
2022/12/04 14:34:52;;;;;;;30.13;15.23;;;;;;;;;;5079984;28;20049;-68
2022/12/04 14:37:23;;;;;;;30.02;14.52;;;;;;;;;;5067829;28;20068;-68
2022/12/04 14:39:50;;;;;;;30.70;15.35;;;;;;;;;;5072885;28;20702;-69
2022/12/04 14:42:24;;;;;;;31.42;15.55;;;;;;;;;;5077210;28;20063;-67
2022/12/04 14:44:57;;;;;;;28.63;14.88;;;;;;;;;;5080757;28;20055;-67